Time;durP1;ratioP1;P1;durP2;ratioP2;P2;SDS_P1;SDS_P2;PMS_P1;PMS_P2;Temp;Humidity;BMP_temperature;BMP_pressure;BME280_temperature;BME280_humidity;BME280_pressure;Samples;Min_cycle;Max_cycle;Signal;HPM_P1;HPM_P2
2022/02/07 00:02:04;;;;;;;10.20;4.82;;;11.20;57.40;;;;;;6248204;28;20028;-72
2022/02/07 00:05:05;;;;;;;16.50;5.90;;;11.20;57.40;;;;;;6270905;28;20492;-72
2022/02/07 00:08:08;;;;;;;11.05;5.05;;;11.20;57.50;;;;;;6282800;28;20021;-73
2022/02/07 00:11:11;;;;;;;15.40;4.28;;;11.20;57.60;;;;;;6279590;28;20060;-72
2022/02/07 00:14:12;;;;;;;9.63;4.13;;;11.10;57.50;;;;;;6281024;28;20032;-72
2022/02/07 00:17:13;;;;;;;9.02;4.88;;;11.20;57.80;;;;;;6281988;28;20511;-72
2022/02/07 00:20:18;;;;;;;15.70;5.03;;;11.10;57.80;;;;;;6280664;28;20037;-72
2022/02/07 00:23:19;;;;;;;11.35;4.40;;;11.10;58.00;;;;;;6282064;28;20021;-72
2022/02/07 00:26:20;;;;;;;15.30;5.18;;;11.10;58.10;;;;;;6282489;28;20036;-72
2022/02/07 00:29:21;;;;;;;10.23;5.28;;;11.10;58.30;;;;;;6276077;28;20347;-72
2022/02/07 00:32:22;;;;;;;11.77;4.65;;;11.00;58.30;;;;;;6283955;28;20032;-71
2022/02/07 00:35:24;;;;;;;10.23;4.78;;;11.10;58.30;;;;;;6279811;28;20053;-72
2022/02/07 00:38:26;;;;;;;10.80;5.00;;;11.10;58.40;;;;;;6278411;28;20370;-72
2022/02/07 00:41:37;;;;;;;11.15;5.35;;;11.00;58.60;;;;;;6279841;28;20032;-72
2022/02/07 00:44:38;;;;;;;10.05;5.00;;;11.00;58.60;;;;;;6281618;28;20024;-71
2022/02/07 00:47:39;;;;;;;15.38;5.35;;;11.10;58.70;;;;;;6265029;28;20077;-71
2022/02/07 00:50:43;;;;;;;11.32;5.35;;;11.10;58.70;;;;;;6283195;28;20021;-72
2022/02/07 00:53:44;;;;;;;11.18;5.70;;;11.10;58.90;;;;;;6280661;28;20098;-72
2022/02/07 00:56:45;;;;;;;13.75;5.22;;;11.10;58.70;;;;;;6278283;28;20025;-72
2022/02/07 00:59:46;;;;;;;10.90;5.13;;;11.10;58.70;;;;;;6271483;28;20024;-72
2022/02/07 01:02:48;;;;;;;13.80;4.97;;;11.10;58.70;;;;;;6277098;28;20266;-72
2022/02/07 01:05:50;;;;;;;13.43;5.35;;;11.20;58.70;;;;;;6251649;28;20029;-72
2022/02/07 01:09:10;;;;;;;10.48;4.38;;;11.20;58.70;;;;;;6250580;28;20042;-72
2022/02/07 01:49:05;;;;;;;6.10;3.65;;;11.00;59.60;;;;;;6261628;28;20039;-71
2022/02/07 01:55:43;;;;;;;8.95;5.00;;;11.10;59.80;;;;;;6207059;28;20030;-71
2022/02/07 01:58:47;;;;;;;8.77;4.63;;;11.10;60.00;;;;;;6187050;28;20041;-71
2022/02/07 02:01:51;;;;;;;8.23;4.53;;;11.00;60.30;;;;;;6196112;28;20088;-71
2022/02/07 02:04:52;;;;;;;9.63;4.30;;;11.10;60.60;;;;;;6200992;28;20060;-71
2022/02/07 02:08:07;;;;;;;9.02;3.90;;;11.00;60.80;;;;;;6217174;28;20018;-71
2022/02/07 02:11:09;;;;;;;9.50;4.57;;;11.00;60.90;;;;;;6199473;28;20065;-71
2022/02/07 02:14:29;;;;;;;11.18;4.25;;;11.00;61.00;;;;;;6227176;28;20037;-72
2022/02/07 02:46:35;;;;;;;14.30;6.70;;;10.60;63.30;;;;;;6281460;28;20013;-72
2022/02/07 02:49:46;;;;;;;16.40;7.28;;;10.60;63.30;;;;;;6277444;28;20441;-72
2022/02/07 02:52:47;;;;;;;14.60;6.63;;;10.60;63.30;;;;;;6273113;28;20449;-72
2022/02/07 02:55:50;;;;;;;19.70;6.40;;;10.70;63.30;;;;;;6278211;28;20079;-72
2022/02/07 02:58:51;;;;;;;16.63;6.18;;;10.70;63.30;;;;;;6275561;28;20043;-73
2022/02/07 03:01:52;;;;;;;12.40;5.53;;;10.70;63.30;;;;;;6263303;28;20025;-72
2022/02/07 03:04:53;;;;;;;16.15;6.65;;;10.70;63.40;;;;;;6277378;28;20253;-72
2022/02/07 03:07:54;;;;;;;11.55;5.78;;;10.70;63.50;;;;;;6276583;28;20024;-72
2022/02/07 03:11:10;;;;;;;12.65;5.22;;;10.70;63.60;;;;;;6277349;28;20024;-72
2022/02/07 03:14:20;;;;;;;15.57;5.57;;;10.70;63.60;;;;;;6275968;28;20029;-71
2022/02/07 03:17:24;;;;;;;19.40;6.10;;;10.70;63.70;;;;;;6279032;28;20669;-71
2022/02/07 03:20:25;;;;;;;10.60;5.45;;;10.60;63.80;;;;;;6263041;28;20097;-72
2022/02/07 03:23:27;;;;;;;12.73;5.47;;;10.60;64.00;;;;;;6278921;28;20039;-71
2022/02/07 03:26:35;;;;;;;10.45;5.65;;;10.60;64.30;;;;;;6277038;28;20097;-72
2022/02/07 03:29:37;;;;;;;9.45;4.90;;;10.50;64.60;;;;;;6281038;28;20025;-72
2022/02/07 03:32:42;;;;;;;10.82;5.20;;;10.50;64.60;;;;;;6275658;28;20051;-72
2022/02/07 03:35:47;;;;;;;7.57;4.35;;;10.50;64.70;;;;;;6272604;28;20377;-72
2022/02/07 03:38:48;;;;;;;9.90;4.45;;;10.50;64.90;;;;;;6274933;28;20033;-72
2022/02/07 03:41:50;;;;;;;12.57;4.53;;;10.40;65.10;;;;;;6281787;28;20028;-72
2022/02/07 03:44:51;;;;;;;13.35;5.35;;;10.40;65.30;;;;;;6267209;28;20028;-71
2022/02/07 03:47:53;;;;;;;9.50;4.53;;;10.40;65.40;;;;;;6280843;28;20028;-71
2022/02/07 03:50:59;;;;;;;11.23;5.53;;;10.40;65.50;;;;;;6284857;28;20087;-71
2022/02/07 03:54:00;;;;;;;16.90;6.13;;;10.30;65.60;;;;;;6281717;28;20118;-71
2022/02/07 03:57:02;;;;;;;15.63;5.95;;;10.30;65.80;;;;;;6263587;28;20071;-71
2022/02/07 04:00:06;;;;;;;15.75;6.88;;;10.30;65.90;;;;;;6258479;28;20021;-73
2022/02/07 04:03:17;;;;;;;13.23;5.93;;;10.20;66.00;;;;;;6280704;28;20052;-71
2022/02/07 04:06:29;;;;;;;15.57;6.90;;;10.20;66.60;;;;;;6265315;28;20055;-72
2022/02/07 04:09:45;;;;;;;12.50;6.30;;;10.20;66.90;;;;;;6251192;28;20016;-72
2022/02/07 04:12:53;;;;;;;17.30;7.57;;;10.20;67.20;;;;;;6259129;28;20025;-72
2022/02/07 04:15:55;;;;;;;14.52;6.78;;;10.10;67.20;;;;;;6268654;28;20029;-71
2022/02/07 04:19:07;;;;;;;15.27;6.28;;;10.10;67.60;;;;;;6265069;28;20032;-72
2022/02/07 04:22:14;;;;;;;11.45;6.10;;;10.00;67.80;;;;;;6253236;28;20035;-72
2022/02/07 04:25:33;;;;;;;17.67;7.78;;;10.00;68.20;;;;;;6263658;28;20035;-72
2022/02/07 04:28:46;;;;;;;16.10;6.72;;;10.00;68.50;;;;;;6250060;28;20047;-71
2022/02/07 04:31:47;;;;;;;12.82;6.47;;;9.90;68.50;;;;;;6265805;28;20029;-72
2022/02/07 04:34:51;;;;;;;17.30;7.15;;;9.90;68.60;;;;;;6262892;28;20277;-72
2022/02/07 04:37:53;;;;;;;12.07;5.95;;;9.90;68.90;;;;;;6262368;28;20120;-72
2022/02/07 04:40:53;;;;;;;16.65;6.97;;;9.90;69.10;;;;;;6249433;28;20594;-73
2022/02/07 04:44:01;;;;;;;13.85;5.82;;;9.90;69.20;;;;;;6262365;28;20343;-72
2022/02/07 04:59:29;;;;;;;12.88;6.28;;;10.00;69.70;;;;;;6261108;28;20020;-72
2022/02/07 05:02:49;;;;;;;13.77;6.07;;;10.00;69.70;;;;;;6262306;28;20052;-72
2022/02/07 05:15:50;;;;;;;13.18;5.90;;;10.00;70.10;;;;;;6172678;28;20574;-72
2022/02/07 05:18:56;;;;;;;13.27;6.88;;;10.00;70.20;;;;;;6173433;28;20092;-72
2022/02/07 05:22:09;;;;;;;12.45;6.00;;;10.00;70.10;;;;;;6176522;28;20702;-72
2022/02/07 05:25:16;;;;;;;10.30;5.60;;;10.10;70.20;;;;;;6191703;28;20034;-72
2022/02/07 05:28:37;;;;;;;10.80;5.15;;;10.10;70.10;;;;;;6185324;28;20050;-73
2022/02/07 05:32:10;;;;;;;9.25;5.05;;;10.10;70.90;;;;;;6139958;29;20035;-73
2022/02/07 05:35:40;;;;;;;11.23;5.50;;;10.10;70.00;;;;;;6120951;29;20526;-73
2022/02/07 05:38:56;;;;;;;8.57;5.07;;;10.10;70.10;;;;;;6126072;29;20023;-72
2022/02/07 05:42:29;;;;;;;7.97;3.65;;;10.20;70.20;;;;;;6083116;29;20036;-73
2022/02/07 05:46:01;;;;;;;6.28;3.30;;;10.20;70.20;;;;;;6026256;29;20471;-71
2022/02/07 05:49:24;;;;;;;6.85;3.85;;;10.20;70.20;;;;;;6022247;29;20184;-72
2022/02/07 05:52:48;;;;;;;5.60;3.13;;;10.30;70.10;;;;;;6092840;29;20043;-71
2022/02/07 05:56:09;;;;;;;6.40;2.45;;;10.30;70.40;;;;;;6070776;29;20521;-71
2022/02/07 05:59:28;;;;;;;4.07;2.33;;;10.30;70.80;;;;;;6056736;29;20119;-73
2022/02/07 06:02:52;;;;;;;6.32;2.92;;;10.30;70.90;;;;;;6001495;29;20049;-72
2022/02/07 06:06:09;;;;;;;3.22;2.40;;;10.30;71.00;;;;;;5986010;29;20049;-72
2022/02/07 06:09:10;;;;;;;8.23;3.53;;;10.30;71.10;;;;;;5988964;29;20034;-72
2022/02/07 06:12:16;;;;;;;8.43;3.38;;;10.30;71.20;;;;;;5987249;29;20076;-72
2022/02/07 06:15:18;;;;;;;5.05;2.50;;;10.40;71.30;;;;;;6000889;29;20053;-72
2022/02/07 06:18:20;;;;;;;3.88;2.53;;;10.50;71.50;;;;;;5988856;29;20091;-72
2022/02/07 06:21:23;;;;;;;4.70;2.92;;;10.50;71.50;;;;;;6010493;29;20046;-73
2022/02/07 06:24:27;;;;;;;5.65;2.90;;;10.60;71.80;;;;;;6010349;29;20194;-73
2022/02/07 06:27:29;;;;;;;3.80;2.50;;;10.60;72.00;;;;;;6041860;29;20116;-73
2022/02/07 06:30:31;;;;;;;7.35;2.88;;;10.70;72.20;;;;;;6058393;29;20055;-73
2022/02/07 06:33:32;;;;;;;5.10;1.90;;;10.70;72.40;;;;;;6120599;28;20031;-73
2022/02/07 06:36:36;;;;;;;3.60;1.95;;;10.80;72.60;;;;;;6142942;28;20028;-72
2022/02/07 06:39:38;;;;;;;5.32;3.10;;;10.90;72.70;;;;;;6203636;28;20345;-72
2022/02/07 06:42:39;;;;;;;6.72;3.53;;;10.90;72.20;;;;;;6248089;28;20116;-74
2022/02/07 06:45:39;;;;;;;5.03;3.78;;;10.90;71.90;;;;;;6276835;28;20021;-72
2022/02/07 06:48:41;;;;;;;1.48;0.90;;;11.00;71.90;;;;;;6257132;28;20104;-72
2022/02/07 06:51:45;;;;;;;3.17;0.50;;;11.00;72.00;;;;;;6247652;28;20028;-72
2022/02/07 06:54:47;;;;;;;1.88;1.05;;;11.00;72.60;;;;;;6260455;28;20087;-72
2022/02/07 06:57:48;;;;;;;1.30;0.90;;;11.20;72.90;;;;;;6262090;28;20466;-72
2022/02/07 07:00:52;;;;;;;2.83;0.65;;;11.30;73.10;;;;;;6243449;28;20097;-71
2022/02/07 07:03:53;;;;;;;1.52;1.10;;;11.30;73.00;;;;;;6261221;28;20055;-72
2022/02/07 07:06:54;;;;;;;1.23;0.73;;;11.40;72.80;;;;;;6277203;28;20036;-70
2022/02/07 07:09:55;;;;;;;5.30;1.30;;;11.40;72.40;;;;;;6273996;28;20025;-73
2022/02/07 07:13:03;;;;;;;1.88;1.00;;;11.30;71.90;;;;;;6274136;28;20693;-71
2022/02/07 07:16:25;;;;;;;1.27;0.73;;;11.30;71.50;;;;;;6277147;28;20120;-71
2022/02/07 07:19:29;;;;;;;1.40;0.80;;;11.20;71.10;;;;;;6284978;28;20101;-72
2022/02/07 07:22:31;;;;;;;1.58;0.90;;;11.20;70.90;;;;;;6275062;28;20028;-73
2022/02/07 07:25:33;;;;;;;1.25;0.82;;;11.10;70.60;;;;;;6276825;28;20037;-73
2022/02/07 07:28:37;;;;;;;2.42;1.02;;;11.10;70.60;;;;;;6278123;28;20083;-73
2022/02/07 07:31:43;;;;;;;9.30;0.75;;;11.10;70.40;;;;;;6277606;28;20544;-73
2022/02/07 07:34:45;;;;;;;8.90;0.83;;;11.10;70.20;;;;;;6275493;28;20452;-74
2022/02/07 07:37:53;;;;;;;6.10;1.00;;;11.10;70.00;;;;;;6265647;28;20020;-73
2022/02/07 07:40:54;;;;;;;3.85;0.55;;;11.20;69.90;;;;;;6274823;28;20040;-74
2022/02/07 07:43:59;;;;;;;0.90;0.43;;;11.30;69.60;;;;;;6278021;28;20029;-74
2022/02/07 07:47:24;;;;;;;1.75;0.20;;;11.40;68.80;;;;;;6279084;28;20036;-75
2022/02/07 07:50:52;;;;;;;0.68;0.20;;;11.40;67.90;;;;;;6276267;28;20078;-74
2022/02/07 08:04:18;;;;;;;9.25;5.05;;;11.60;66.20;;;;;;6277622;28;20048;-73
2022/02/07 08:07:35;;;;;;;7.30;4.43;;;11.50;66.90;;;;;;6278806;28;20032;-74
2022/02/07 08:14:05;;;;;;;9.68;5.45;;;11.60;67.60;;;;;;6254322;28;20083;-73
2022/02/07 08:17:08;;;;;;;10.45;5.68;;;11.60;67.70;;;;;;6243051;28;20245;-73
2022/02/07 08:20:10;;;;;;;8.70;5.28;;;11.50;67.90;;;;;;6256434;28;20032;-73
2022/02/07 08:23:11;;;;;;;12.48;4.53;;;11.50;68.00;;;;;;6256479;28;20029;-72
2022/02/07 08:26:12;;;;;;;4.90;2.58;;;11.50;68.20;;;;;;6254070;28;20071;-73
2022/02/07 08:29:14;;;;;;;3.35;2.00;;;11.50;68.20;;;;;;6247495;28;20029;-73
2022/02/07 08:32:14;;;;;;;4.32;1.98;;;11.60;68.00;;;;;;6258464;28;20045;-73
2022/02/07 08:35:15;;;;;;;2.42;1.60;;;11.60;67.70;;;;;;6258896;28;20033;-74
2022/02/07 08:38:18;;;;;;;0.80;0.80;;;11.70;67.40;;;;;;6261280;28;20042;-73
2022/02/07 08:41:18;;;;;;;5.68;0.68;;;11.70;66.90;;;;;;6246674;28;20029;-75
2022/02/07 08:44:19;;;;;;;0.90;0.40;;;11.80;66.00;;;;;;6256899;28;20081;-72
2022/02/07 08:47:21;;;;;;;1.77;0.40;;;11.90;65.10;;;;;;6258128;28;20051;-73
2022/02/07 08:50:26;;;;;;;4.50;0.75;;;11.90;64.00;;;;;;6263859;28;20043;-73
2022/02/07 08:53:33;;;;;;;0.47;0.38;;;12.00;63.00;;;;;;6280038;28;20559;-73
2022/02/07 08:57:02;;;;;;;2.13;0.40;;;12.10;62.30;;;;;;6266729;28;20036;-72
2022/02/07 09:00:06;;;;;;;3.65;1.35;;;12.20;62.20;;;;;;6277430;28;20028;-72
2022/02/07 09:06:35;;;;;;;1.35;0.35;;;12.50;61.20;;;;;;6281343;28;20021;-73
2022/02/07 09:09:40;;;;;;;2.83;0.38;;;12.50;60.30;;;;;;6246719;28;20024;-72
2022/02/07 09:12:43;;;;;;;4.25;0.38;;;12.60;59.70;;;;;;6263471;28;20032;-73
2022/02/07 09:16:02;;;;;;;0.82;0.40;;;12.70;59.60;;;;;;6281512;28;20465;-72
2022/02/07 09:19:06;;;;;;;0.60;0.40;;;12.70;59.50;;;;;;6283938;28;20024;-73
2022/02/07 09:22:08;;;;;;;3.20;1.02;;;12.90;59.10;;;;;;6263287;28;20036;-73
2022/02/07 09:25:09;;;;;;;1.95;0.45;;;12.90;58.40;;;;;;6261735;28;20108;-73
2022/02/07 09:28:10;;;;;;;1.73;0.45;;;13.00;58.00;;;;;;6261700;28;20602;-73
2022/02/07 09:31:12;;;;;;;1.65;0.52;;;13.00;57.50;;;;;;6276698;28;20131;-72
2022/02/07 09:34:13;;;;;;;2.35;0.80;;;13.10;57.50;;;;;;6277600;28;20061;-72
2022/02/07 09:37:14;;;;;;;1.15;0.75;;;13.10;57.40;;;;;;6259864;28;20027;-72
2022/02/07 09:40:18;;;;;;;4.63;0.75;;;13.10;58.10;;;;;;6279968;28;20032;-71
2022/02/07 09:43:25;;;;;;;3.05;1.05;;;13.00;57.50;;;;;;6281137;28;20041;-72
2022/02/07 09:46:43;;;;;;;3.95;0.90;;;12.90;57.40;;;;;;6259991;28;20358;-74
2022/02/07 09:49:46;;;;;;;6.77;0.60;;;12.90;57.70;;;;;;6275706;28;20025;-71
2022/02/07 09:52:47;;;;;;;2.40;0.77;;;12.90;57.70;;;;;;6275269;28;20037;-70
2022/02/07 09:55:48;;;;;;;2.47;0.88;;;13.00;57.60;;;;;;6257800;28;20105;-71
2022/02/07 09:58:51;;;;;;;3.10;0.80;;;13.10;57.80;;;;;;6263229;28;20029;-71
2022/02/07 10:01:55;;;;;;;2.67;0.80;;;13.20;57.20;;;;;;6261699;28;20035;-70
2022/02/07 10:05:00;;;;;;;5.22;1.23;;;13.30;57.10;;;;;;6278812;28;20056;-70
2022/02/07 10:08:10;;;;;;;3.40;0.75;;;13.40;56.80;;;;;;6263813;28;20361;-70
2022/02/07 10:14:50;;;;;;;1.73;0.70;;;13.50;56.50;;;;;;6275280;28;20024;-70
2022/02/07 10:18:00;;;;;;;3.17;0.77;;;13.60;56.10;;;;;;6261991;28;20537;-70
2022/02/07 10:37:59;;;;;;;3.92;0.63;;;14.20;53.20;;;;;;6260137;28;20029;-72
2022/02/07 10:44:58;;;;;;;7.32;1.17;;;13.80;53.20;;;;;;6275233;28;20043;-72
2022/02/07 10:48:04;;;;;;;0.95;0.57;;;13.60;53.50;;;;;;6277636;28;20378;-70
2022/02/07 10:51:20;;;;;;;4.95;0.73;;;13.40;53.40;;;;;;6277765;28;20025;-70
2022/02/07 10:54:21;;;;;;;1.63;0.50;;;13.40;53.70;;;;;;6258385;28;20024;-70
2022/02/07 10:57:23;;;;;;;4.10;0.85;;;13.30;53.80;;;;;;6278541;28;20476;-70
2022/02/07 11:00:37;;;;;;;3.42;0.50;;;13.30;54.10;;;;;;6251505;28;20472;-71
2022/02/07 11:03:47;;;;;;;2.80;0.68;;;13.30;54.00;;;;;;6259431;28;20038;-70
2022/02/07 11:06:52;;;;;;;2.58;0.60;;;13.30;53.70;;;;;;6269813;28;20021;-71
2022/02/07 11:13:49;;;;;;;4.20;1.08;;;13.20;52.90;;;;;;6247053;28;20033;-72
2022/02/07 11:23:53;;;;;;;1.67;0.63;;;13.20;52.30;;;;;;6254581;28;20079;-72
2022/02/07 11:27:32;;;;;;;3.42;0.50;;;13.20;52.50;;;;;;6233264;28;20022;-72
2022/02/07 11:30:51;;;;;;;3.65;1.30;;;13.30;52.20;;;;;;6244558;28;20536;-72
2022/02/07 11:33:54;;;;;;;2.70;0.40;;;13.30;50.90;;;;;;6221629;28;20026;-72
2022/02/07 11:37:21;;;;;;;4.93;0.93;;;13.20;50.60;;;;;;6246777;28;20144;-72
2022/02/07 11:40:36;;;;;;;5.47;0.40;;;13.20;50.70;;;;;;6245902;28;20172;-72
2022/02/07 11:43:39;;;;;;;0.88;0.32;;;13.30;50.40;;;;;;6239049;28;20037;-73
2022/02/07 11:46:41;;;;;;;0.88;0.40;;;13.60;49.70;;;;;;6239097;28;20104;-73
2022/02/07 11:49:46;;;;;;;1.25;0.45;;;14.30;48.70;;;;;;6261544;28;20045;-73
2022/02/07 11:52:50;;;;;;;2.53;0.57;;;15.10;47.40;;;;;;6276534;28;20025;-73
2022/02/07 11:56:05;;;;;;;2.72;0.50;;;16.20;45.30;;;;;;6256425;28;20029;-71
2022/02/07 11:59:18;;;;;;;0.80;0.40;;;17.30;42.80;;;;;;6263543;28;20057;-72
2022/02/07 12:02:20;;;;;;;0.80;0.40;;;18.30;39.20;;;;;;6265916;28;20137;-72
2022/02/07 12:05:24;;;;;;;0.30;0.20;;;19.10;36.40;;;;;;6277999;28;20079;-71
2022/02/07 12:08:27;;;;;;;1.33;0.50;;;19.80;34.70;;;;;;6267247;28;20108;-72
2022/02/07 12:11:43;;;;;;;0.38;0.10;;;20.20;32.90;;;;;;6270916;28;20044;-71
2022/02/07 12:14:52;;;;;;;0.25;0.22;;;20.50;31.90;;;;;;6277468;28;20024;-71
2022/02/07 12:17:56;;;;;;;;;;;20.80;30.40;;;;;;6281994;28;20021;-73
2022/02/07 12:21:14;;;;;;;2.15;0.47;;;20.80;29.00;;;;;;6276214;28;19938;-70
2022/02/07 12:24:18;;;;;;;0.82;0.50;;;20.10;29.80;;;;;;6267917;28;20083;-70
2022/02/07 12:27:20;;;;;;;2.65;0.43;;;19.40;31.50;;;;;;6270616;28;20031;-71
2022/02/07 12:33:58;;;;;;;0.22;0.20;;;18.40;34.10;;;;;;6221436;28;20100;-69
2022/02/07 12:37:00;;;;;;;1.33;0.50;;;17.80;34.00;;;;;;6220590;28;20336;-70
2022/02/07 12:40:04;;;;;;;2.53;0.60;;;17.40;34.90;;;;;;6233503;28;20030;-70
2022/02/07 12:43:12;;;;;;;1.52;0.52;;;17.10;34.90;;;;;;6223282;28;20029;-70
2022/02/07 12:46:16;;;;;;;7.17;0.80;;;16.90;35.80;;;;;;6235408;28;20120;-71
2022/02/07 12:49:23;;;;;;;3.67;0.80;;;16.60;36.90;;;;;;6233770;28;20025;-71
2022/02/07 12:52:37;;;;;;;1.55;0.70;;;16.40;37.70;;;;;;6228829;28;20037;-71
2022/02/07 12:55:38;;;;;;;2.63;0.50;;;16.20;38.50;;;;;;6227835;28;20481;-71
2022/02/07 12:58:48;;;;;;;1.63;0.40;;;16.00;38.80;;;;;;6233056;28;20037;-70
2022/02/07 13:01:49;;;;;;;4.03;0.40;;;15.80;38.90;;;;;;6216850;28;20497;-71
2022/02/07 13:04:50;;;;;;;3.53;0.40;;;15.70;38.80;;;;;;6198046;28;20037;-71
2022/02/07 13:07:51;;;;;;;18.92;0.95;;;15.60;38.00;;;;;;6232589;28;20053;-69
2022/02/07 13:10:55;;;;;;;0.70;0.50;;;15.50;37.60;;;;;;6254330;28;20088;-71
2022/02/07 13:13:56;;;;;;;1.55;0.30;;;15.40;37.80;;;;;;6279517;28;20036;-70
2022/02/07 13:16:57;;;;;;;8.77;0.47;;;15.40;37.40;;;;;;6267645;28;20066;-72
2022/02/07 13:20:06;;;;;;;1.20;0.52;;;15.30;36.90;;;;;;6264555;28;20028;-71
2022/02/07 13:23:12;;;;;;;1.45;0.52;;;15.30;36.10;;;;;;6280083;28;20575;-70
2022/02/07 13:26:17;;;;;;;3.42;0.35;;;15.20;35.60;;;;;;6279721;28;20119;-71
2022/02/07 13:29:23;;;;;;;0.82;0.32;;;15.20;35.50;;;;;;6278802;28;20068;-71
2022/02/07 13:32:30;;;;;;;0.20;0.10;;;15.20;36.30;;;;;;6277441;28;20063;-72
2022/02/07 13:35:45;;;;;;;2.67;0.40;;;15.10;36.50;;;;;;6274438;28;20020;-72
2022/02/07 13:38:46;;;;;;;0.98;0.40;;;15.10;36.70;;;;;;6280632;28;20112;-70
2022/02/07 13:42:07;;;;;;;1.52;0.63;;;15.10;36.50;;;;;;6279989;28;20415;-72
2022/02/07 13:45:19;;;;;;;6.50;0.57;;;15.10;36.10;;;;;;6280878;28;20640;-70
2022/02/07 13:48:22;;;;;;;1.85;0.60;;;15.10;35.80;;;;;;6275622;28;20029;-71
2022/02/07 13:51:27;;;;;;;0.80;0.60;;;15.10;35.90;;;;;;6278848;28;20518;-71
2022/02/07 13:54:32;;;;;;;0.40;0.40;;;15.00;36.00;;;;;;6277948;28;20119;-72
2022/02/07 13:57:32;;;;;;;1.30;0.43;;;15.10;36.20;;;;;;6274345;28;20034;-71
2022/02/07 14:00:34;;;;;;;1.88;0.55;;;15.10;35.90;;;;;;6278705;28;20222;-69
2022/02/07 14:03:45;;;;;;;1.42;0.40;;;15.10;35.90;;;;;;6277851;28;20703;-69
2022/02/07 14:07:10;;;;;;;1.48;0.50;;;15.00;35.20;;;;;;6265538;28;20024;-70
2022/02/07 14:10:22;;;;;;;0.22;0.22;;;15.00;35.10;;;;;;6248400;28;20032;-70
2022/02/07 14:13:23;;;;;;;2.35;0.63;;;15.00;35.00;;;;;;6282308;28;20098;-70
2022/02/07 14:16:26;;;;;;;0.57;0.47;;;15.00;35.00;;;;;;6276682;28;20392;-71
2022/02/07 14:19:40;;;;;;;1.02;0.50;;;15.00;34.40;;;;;;6248477;28;20285;-70
2022/02/07 14:22:40;;;;;;;5.28;0.60;;;15.00;34.70;;;;;;6277599;28;20883;-70
2022/02/07 14:25:44;;;;;;;3.15;0.57;;;15.00;35.00;;;;;;6259093;28;20017;-70
2022/02/07 14:28:53;;;;;;;0.77;0.30;;;14.90;35.10;;;;;;6261574;28;20044;-69
2022/02/07 14:31:55;;;;;;;3.30;0.50;;;14.90;34.90;;;;;;6274619;28;20400;-69
2022/02/07 14:34:56;;;;;;;4.88;0.70;;;14.90;35.10;;;;;;6276999;28;20029;-69
2022/02/07 14:37:57;;;;;;;0.85;0.57;;;14.90;35.40;;;;;;6253174;28;20031;-69
2022/02/07 14:40:57;;;;;;;4.90;0.43;;;14.90;35.50;;;;;;6279905;28;20032;-69
2022/02/07 14:44:03;;;;;;;1.65;0.35;;;14.90;35.70;;;;;;6261244;28;20043;-70
2022/02/07 14:47:12;;;;;;;1.30;0.60;;;14.90;35.20;;;;;;6277084;28;20405;-70
2022/02/07 14:50:15;;;;;;;2.03;0.82;;;14.80;35.10;;;;;;6264588;28;20132;-72
2022/02/07 14:53:16;;;;;;;0.63;0.38;;;14.80;35.40;;;;;;6246392;28;20361;-71
2022/02/07 14:56:17;;;;;;;6.03;0.55;;;14.80;35.50;;;;;;6274039;28;20116;-72
2022/02/07 14:59:20;;;;;;;2.30;0.52;;;14.70;35.50;;;;;;6250385;28;20067;-71
2022/02/07 15:02:22;;;;;;;2.97;0.73;;;14.70;35.40;;;;;;6260324;28;20086;-71
2022/02/07 15:05:24;;;;;;;5.38;0.60;;;14.60;35.50;;;;;;6275822;28;20064;-71
2022/02/07 15:08:29;;;;;;;3.85;0.80;;;14.60;35.50;;;;;;6274941;28;20013;-71
2022/02/07 15:11:29;;;;;;;0.98;0.60;;;14.60;35.40;;;;;;6279803;28;20464;-70
2022/02/07 15:14:30;;;;;;;1.63;0.65;;;14.50;35.50;;;;;;6275912;28;20024;-71
2022/02/07 15:17:31;;;;;;;1.48;0.50;;;14.50;35.50;;;;;;6259018;28;20291;-71
2022/02/07 15:20:38;;;;;;;11.80;0.80;;;14.40;35.60;;;;;;6256126;28;20033;-71
2022/02/07 15:23:41;;;;;;;2.90;0.57;;;14.40;36.00;;;;;;6257265;28;20036;-72
2022/02/07 15:26:42;;;;;;;5.60;0.90;;;14.40;36.10;;;;;;6259911;28;20025;-72
2022/02/07 15:29:44;;;;;;;2.45;0.55;;;14.30;36.20;;;;;;6259549;28;20386;-72
2022/02/07 15:32:48;;;;;;;2.47;0.40;;;14.30;36.40;;;;;;6277329;28;20028;-72
2022/02/07 15:35:52;;;;;;;1.02;0.40;;;14.20;36.30;;;;;;6255631;28;20450;-72
2022/02/07 15:38:54;;;;;;;6.72;0.70;;;14.20;36.30;;;;;;6277395;28;20461;-71
2022/02/07 15:41:55;;;;;;;2.38;0.77;;;14.20;36.00;;;;;;6257163;28;20045;-71
2022/02/07 15:44:59;;;;;;;2.50;0.82;;;14.10;36.30;;;;;;6243270;28;20100;-73
2022/02/07 15:48:01;;;;;;;2.60;0.45;;;14.10;36.80;;;;;;6276852;28;20025;-72
2022/02/07 15:51:03;;;;;;;0.82;0.50;;;14.00;36.50;;;;;;6257729;28;20024;-72
2022/02/07 15:54:06;;;;;;;2.90;0.98;;;14.00;36.40;;;;;;6277611;28;20017;-71
2022/02/07 15:57:10;;;;;;;2.05;0.50;;;13.90;36.50;;;;;;6276493;28;20041;-72
2022/02/07 16:00:14;;;;;;;3.22;0.52;;;13.90;36.50;;;;;;6244462;28;20115;-72
2022/02/07 16:03:15;;;;;;;4.88;0.50;;;13.80;36.70;;;;;;6277150;28;20132;-72
2022/02/07 16:06:17;;;;;;;0.80;0.50;;;13.80;36.90;;;;;;6255464;28;20044;-72
2022/02/07 16:09:19;;;;;;;4.43;0.68;;;13.70;37.30;;;;;;6273169;28;20036;-72
2022/02/07 16:12:20;;;;;;;0.50;0.50;;;13.70;37.70;;;;;;6255286;28;20028;-72
2022/02/07 16:15:21;;;;;;;6.28;1.00;;;13.60;37.80;;;;;;6274980;28;20025;-72
2022/02/07 16:18:22;;;;;;;1.35;0.93;;;13.60;38.00;;;;;;6256067;28;20045;-72
2022/02/07 16:21:23;;;;;;;2.08;0.80;;;13.50;38.20;;;;;;6256586;28;20025;-71
2022/02/07 16:24:25;;;;;;;1.83;0.60;;;13.50;38.30;;;;;;6257119;28;20020;-71
2022/02/07 16:27:26;;;;;;;3.70;1.05;;;13.40;38.40;;;;;;6261739;28;20093;-71
2022/02/07 16:30:26;;;;;;;3.45;0.82;;;13.40;38.30;;;;;;6277825;28;20035;-71
2022/02/07 16:33:27;;;;;;;3.05;0.80;;;13.30;37.70;;;;;;6259491;28;20135;-72
2022/02/07 16:36:29;;;;;;;1.27;0.50;;;13.30;37.80;;;;;;6275516;28;20087;-72
2022/02/07 16:39:30;;;;;;;4.55;0.55;;;13.30;37.50;;;;;;6263750;28;20072;-71
2022/02/07 16:42:33;;;;;;;2.55;0.80;;;13.30;37.30;;;;;;6273837;28;20017;-73
2022/02/07 16:49:02;;;;;;;2.45;0.38;;;13.20;37.20;;;;;;6205331;28;20057;-71
2022/02/07 16:52:04;;;;;;;3.17;0.65;;;13.20;36.70;;;;;;6179965;28;20022;-72
2022/02/07 16:55:05;;;;;;;4.18;0.55;;;13.20;36.50;;;;;;6203370;28;20034;-71
2022/02/07 16:58:06;;;;;;;1.30;0.55;;;13.20;36.50;;;;;;6206875;28;20131;-71
2022/02/07 17:01:10;;;;;;;5.32;0.88;;;13.10;37.20;;;;;;6199899;28;20037;-72
2022/02/07 17:04:11;;;;;;;6.47;0.95;;;13.10;36.50;;;;;;6204465;28;20045;-73
2022/02/07 17:07:11;;;;;;;2.63;0.75;;;13.00;36.50;;;;;;6230880;28;20395;-74
2022/02/07 17:10:16;;;;;;;1.33;0.70;;;13.00;36.50;;;;;;6229259;28;20045;-72
2022/02/07 17:13:17;;;;;;;1.65;0.50;;;12.90;36.20;;;;;;6211620;28;20056;-73
2022/02/07 17:16:19;;;;;;;5.13;0.73;;;12.90;35.70;;;;;;6216309;28;20039;-71
2022/02/07 17:19:20;;;;;;;1.08;0.63;;;12.90;35.80;;;;;;6228503;28;20041;-72
2022/02/07 17:22:22;;;;;;;1.92;0.50;;;12.90;36.20;;;;;;6204663;28;20037;-72
2022/02/07 17:25:23;;;;;;;3.67;0.90;;;12.80;35.90;;;;;;6232973;28;20044;-72
2022/02/07 17:28:24;;;;;;;1.42;0.73;;;12.80;36.00;;;;;;6262925;28;20592;-72
2022/02/07 17:31:25;;;;;;;6.35;1.55;;;12.80;36.20;;;;;;6277990;28;20032;-72
2022/02/07 17:34:26;;;;;;;4.13;0.80;;;12.70;36.50;;;;;;6279472;28;20025;-72
2022/02/07 17:37:28;;;;;;;1.38;0.80;;;12.70;37.00;;;;;;6283590;28;20127;-71
2022/02/07 17:40:31;;;;;;;3.65;1.02;;;12.60;37.20;;;;;;6279222;28;20031;-72
2022/02/07 17:43:43;;;;;;;2.10;0.60;;;12.60;37.40;;;;;;6269435;28;20366;-72
2022/02/07 17:46:44;;;;;;;3.88;0.75;;;12.60;38.10;;;;;;6282994;28;20637;-72
2022/02/07 17:49:45;;;;;;;4.07;1.00;;;12.50;37.90;;;;;;6277925;28;20025;-71
2022/02/07 17:52:46;;;;;;;2.67;0.95;;;12.40;38.20;;;;;;6278535;28;20110;-73
2022/02/07 17:55:48;;;;;;;2.53;0.88;;;12.40;38.30;;;;;;6282536;28;20454;-72
2022/02/07 17:58:49;;;;;;;2.25;0.82;;;12.30;38.70;;;;;;6277537;28;20021;-70
2022/02/07 18:01:50;;;;;;;2.53;0.70;;;12.30;39.20;;;;;;6278075;28;20037;-72
2022/02/07 18:04:52;;;;;;;0.85;0.68;;;12.20;39.10;;;;;;6263785;28;20036;-71
2022/02/07 18:07:53;;;;;;;2.38;0.90;;;12.20;39.20;;;;;;6279046;28;20024;-71
2022/02/07 18:10:56;;;;;;;1.25;0.77;;;12.20;39.40;;;;;;6277286;28;20122;-73
2022/02/07 18:13:57;;;;;;;3.10;0.70;;;12.20;39.50;;;;;;6264722;28;20020;-71
2022/02/07 18:16:59;;;;;;;7.00;1.02;;;12.10;40.00;;;;;;6278503;28;20060;-71
2022/02/07 18:20:18;;;;;;;2.92;1.13;;;12.10;40.30;;;;;;6267596;28;20691;-72
2022/02/07 18:23:19;;;;;;;6.40;1.13;;;12.00;40.40;;;;;;6278899;28;20033;-71
2022/02/07 18:26:20;;;;;;;3.65;1.20;;;12.00;40.60;;;;;;6270696;28;20401;-71
2022/02/07 18:29:21;;;;;;;1.30;0.63;;;11.90;40.90;;;;;;6278460;28;20166;-72
2022/02/07 18:32:22;;;;;;;6.35;1.35;;;11.80;40.90;;;;;;6278823;28;20152;-71
2022/02/07 18:35:24;;;;;;;5.15;0.98;;;11.80;41.00;;;;;;6282642;28;20543;-70